Terminal Aerodrome Forecast
Issued by NWS Omaha/Valley, NE

Home | Current Version | Previous Version | Text Only | Print | Product List | Glossary On
Versions: 1 2 3 4 5 6 7 8 9 10 11 12 13 14 15 16 17 18 19 20 21 22 23 24 25 26 27 28 29 30
000
FTUS43 KOAX 021904 AAA
TAFLNK
TAF AMD
KLNK 021904Z 0219/0318 18014G23KT P6SM SCT040 OVC060
     FM030400 17015KT 6SM BR OVC012
      TEMPO 0307/0310 2SM -FZRADZ BR
     FM031100 22007KT 4SM BR OVC009
      TEMPO 0311/0313 3SM -SN OVC007
     FM031500 34023G29KT P6SM OVC025=

USA.gov is the U.S. government's official web portal to all federal, state and local government web resources and services.